createdAt,value
2019-01-30T00:01:49.263Z,15.55
2019-01-30T00:04:25.447Z,16.67
2019-01-30T00:07:04.304Z,18.55
2019-01-30T00:09:51.454Z,14.83
2019-01-30T00:12:54.612Z,14.65
2019-01-30T00:15:38.902Z,14.25
2019-01-30T00:18:37.050Z,15.40
2019-01-30T00:21:10.027Z,14.47
2019-01-30T00:23:41.263Z,15.38
2019-01-30T00:26:37.750Z,14.47
2019-01-30T00:29:14.697Z,14.68
2019-01-30T00:31:44.762Z,13.65
2019-01-30T00:34:16.079Z,15.13
2019-01-30T00:36:47.228Z,11.95
2019-01-30T00:39:35.159Z,12.40
2019-01-30T00:42:08.464Z,14.73
2019-01-30T00:44:42.667Z,12.40
2019-01-30T00:47:27.553Z,13.78
2019-01-30T00:50:01.797Z,13.80
2019-01-30T00:52:33.102Z,16.75
2019-01-30T00:55:09.449Z,15.13
2019-01-30T00:57:40.697Z,12.55
2019-01-30T01:00:25.956Z,13.85
2019-01-30T01:03:09.713Z,10.68
2019-01-30T01:05:40.939Z,14.15
2019-01-30T01:08:12.703Z,10.35
2019-01-30T01:10:43.998Z,14.43
2019-01-30T01:13:20.220Z,13.93
2019-01-30T01:15:51.309Z,11.90
2019-01-30T01:18:22.541Z,10.13
2019-01-30T01:21:14.944Z,11.00
2019-01-30T01:24:10.626Z,11.38
2019-01-30T01:26:46.259Z,11.60
2019-01-30T01:29:17.343Z,10.47
2019-01-30T01:31:48.633Z,15.00
2019-01-30T01:34:21.311Z,11.50
2019-01-30T01:36:52.504Z,13.25
2019-01-30T01:39:45.164Z,16.07
2019-01-30T01:42:28.007Z,12.07
2019-01-30T01:45:09.297Z,13.28
2019-01-30T01:47:42.816Z,12.82
2019-01-30T01:50:23.284Z,12.25
2019-01-30T01:52:58.528Z,15.47
2019-01-30T01:55:44.204Z,12.50
2019-01-30T01:58:24.766Z,14.80
2019-01-30T02:01:23.297Z,13.43
2019-01-30T02:03:50.922Z,14.40
2019-01-30T02:06:29.346Z,10.30
2019-01-30T02:09:18.613Z,12.27
2019-01-30T02:12:10.878Z,11.73
2019-01-30T02:14:47.625Z,9.75
2019-01-30T02:17:40.135Z,11.10
2019-01-30T02:20:39.853Z,9.90
2019-01-30T02:23:16.152Z,10.08
2019-01-30T02:26:05.052Z,12.90
2019-01-30T02:29:02.008Z,13.50
2019-01-30T02:31:45.650Z,13.83
2019-01-30T02:34:22.794Z,12.95
2019-01-30T02:37:13.213Z,15.58
2019-01-30T02:39:49.921Z,19.45
2019-01-30T02:42:28.875Z,18.23
2019-01-30T02:45:18.076Z,15.32
2019-01-30T02:48:05.166Z,16.82
2019-01-30T02:50:41.756Z,18.52
2019-01-30T02:53:19.889Z,17.70
2019-01-30T02:55:52.287Z,17.77
2019-01-30T02:58:35.179Z,16.77
2019-01-30T03:01:09.770Z,18.02
2019-01-30T03:03:41.191Z,18.23
2019-01-30T03:06:15.033Z,17.50
2019-01-30T03:08:51.602Z,21.45
2019-01-30T03:11:29.329Z,18.65
2019-01-30T03:14:06.804Z,21.25
2019-01-30T03:16:42.638Z,19.05
2019-01-30T03:19:15.031Z,21.10
2019-01-30T03:21:46.867Z,19.40
2019-01-30T03:24:19.930Z,21.90
2019-01-30T03:26:51.512Z,21.80
2019-01-30T03:29:28.429Z,22.20
2019-01-30T03:32:05.512Z,24.05
2019-01-30T03:34:45.698Z,26.82
2019-01-30T03:37:26.392Z,22.30
2019-01-30T03:40:09.820Z,21.70
2019-01-30T03:42:51.453Z,23.52
2019-01-30T03:45:41.395Z,25.05
2019-01-30T03:48:16.986Z,28.62
2019-01-30T03:51:02.228Z,25.85
2019-01-30T03:53:38.035Z,21.70
2019-01-30T03:56:25.987Z,22.00
2019-01-30T03:59:13.249Z,22.67
2019-01-30T04:01:52.391Z,24.87
2019-01-30T04:04:26.408Z,24.00
2019-01-30T04:06:57.624Z,23.00
2019-01-30T04:09:36.160Z,22.10
2019-01-30T04:12:10.461Z,24.75
2019-01-30T04:14:47.015Z,26.48
2019-01-30T04:17:21.200Z,24.87
2019-01-30T04:19:59.050Z,24.52
2019-01-30T04:22:33.684Z,24.27
2019-01-30T04:25:16.167Z,26.12
2019-01-30T04:27:52.131Z,23.32
2019-01-30T04:30:30.025Z,23.42
2019-01-30T04:33:07.296Z,27.55
2019-01-30T04:35:38.179Z,24.40
2019-01-30T04:38:11.182Z,25.72
2019-01-30T04:40:42.590Z,20.15
2019-01-30T04:43:19.529Z,24.67
2019-01-30T04:46:08.621Z,24.03
2019-01-30T04:48:42.667Z,24.07
2019-01-30T04:51:16.114Z,23.95
2019-01-30T04:53:49.170Z,24.70
2019-01-30T04:56:33.051Z,24.02
2019-01-30T04:59:11.819Z,24.02
2019-01-30T05:01:50.027Z,25.52
2019-01-30T05:04:37.171Z,24.30
2019-01-30T05:07:13.463Z,23.00
2019-01-30T05:10:01.277Z,24.95
2019-01-30T05:12:51.638Z,21.05
2019-01-30T05:15:35.649Z,26.87
2019-01-30T05:18:16.813Z,24.95
2019-01-30T05:21:00.820Z,23.40
2019-01-30T05:23:39.910Z,23.70
2019-01-30T05:26:15.011Z,27.32
2019-01-30T05:28:49.782Z,27.00
2019-01-30T05:31:26.007Z,24.40
2019-01-30T05:34:07.264Z,26.20
2019-01-30T05:36:41.692Z,20.77
2019-01-30T05:39:13.091Z,21.85
2019-01-30T05:41:49.693Z,23.52
2019-01-30T05:44:34.464Z,24.75
2019-01-30T05:47:18.786Z,27.20
2019-01-30T05:50:00.856Z,24.67
2019-01-30T05:52:50.541Z,24.70
2019-01-30T05:55:37.208Z,32.80
2019-01-30T05:58:13.469Z,31.93
2019-01-30T06:00:55.724Z,27.52
2019-01-30T06:03:36.586Z,29.42
2019-01-30T06:06:16.279Z,28.00
2019-01-30T06:08:53.618Z,25.77
2019-01-30T06:11:34.232Z,31.12
2019-01-30T06:14:09.798Z,31.40
2019-01-30T06:16:45.865Z,33.18
2019-01-30T06:19:22.497Z,30.80
2019-01-30T06:22:11.339Z,31.80
2019-01-30T06:25:09.515Z,30.95
2019-01-30T06:27:40.969Z,33.73
2019-01-30T06:30:29.373Z,35.38
2019-01-30T06:33:25.913Z,29.10
2019-01-30T06:36:01.332Z,38.10
2019-01-30T06:38:41.956Z,33.95
2019-01-30T06:41:41.217Z,36.65
2019-01-30T06:44:20.889Z,35.83
2019-01-30T06:47:07.663Z,33.18
2019-01-30T06:49:45.677Z,33.35
2019-01-30T06:52:21.870Z,31.00
2019-01-30T06:54:59.739Z,31.10
2019-01-30T06:57:30.647Z,33.48
2019-01-30T07:00:02.176Z,33.85
2019-01-30T07:02:34.309Z,32.93
2019-01-30T07:05:10.553Z,35.45
2019-01-30T07:07:44.179Z,32.53
2019-01-30T07:10:21.408Z,32.13
2019-01-30T07:12:52.659Z,33.28
2019-01-30T07:15:24.510Z,31.02
2019-01-30T07:17:56.787Z,32.23
2019-01-30T07:20:28.084Z,37.27
2019-01-30T07:22:59.183Z,33.65
2019-01-30T07:25:29.911Z,27.87
2019-01-30T07:28:00.571Z,31.40
2019-01-30T07:30:38.452Z,28.32
2019-01-30T07:33:09.512Z,34.10
2019-01-30T07:35:40.315Z,33.90
2019-01-30T07:38:11.052Z,30.80
2019-01-30T07:40:41.856Z,31.62
2019-01-30T07:43:12.576Z,29.75
2019-01-30T07:45:43.329Z,31.42
2019-01-30T07:48:14.145Z,26.37
2019-01-30T07:50:44.880Z,28.02
2019-01-30T07:53:15.717Z,26.93
2019-01-30T07:55:46.667Z,28.95
2019-01-30T07:58:17.287Z,30.10
2019-01-30T08:00:51.068Z,28.47
2019-01-30T08:03:21.779Z,26.97
2019-01-30T08:05:52.949Z,29.35
2019-01-30T08:08:23.655Z,29.27
2019-01-30T08:10:54.415Z,26.62
2019-01-30T08:13:28.752Z,27.75
2019-01-30T08:15:59.651Z,27.70
2019-01-30T08:18:33.403Z,27.62
2019-01-30T08:21:04.426Z,26.75
2019-01-30T08:23:35.472Z,28.10
2019-01-30T08:26:07.973Z,28.20
2019-01-30T08:28:39.251Z,26.57
2019-01-30T08:31:10.459Z,27.73
2019-01-30T08:33:47.327Z,27.85
2019-01-30T08:36:18.664Z,22.90
2019-01-30T08:43:52.135Z,25.30
2019-01-30T08:46:22.893Z,18.77
2019-01-30T08:48:55.483Z,25.13
2019-01-30T08:51:26.559Z,20.90
2019-01-30T08:53:57.474Z,22.60
2019-01-30T08:56:28.467Z,19.20
2019-01-30T08:58:59.229Z,17.95
2019-01-30T09:01:38.653Z,19.90
2019-01-30T09:04:11.359Z,20.10
2019-01-30T09:06:44.447Z,17.77
2019-01-30T09:09:23.363Z,19.57
2019-01-30T09:11:57.627Z,16.57
2019-01-30T09:14:27.704Z,20.97
2019-01-30T09:16:58.425Z,17.70
2019-01-30T09:19:29.239Z,23.77
2019-01-30T09:22:00.275Z,18.53
2019-01-30T09:24:38.393Z,18.20
2019-01-30T09:27:09.123Z,15.77
2019-01-30T09:32:09.540Z,20.40
2019-01-30T09:34:40.351Z,19.27
2019-01-30T09:37:11.142Z,20.02
2019-01-30T09:39:42.474Z,20.20
2019-01-30T09:42:13.181Z,21.80
2019-01-30T09:44:44.049Z,19.90
2019-01-30T09:47:14.977Z,19.60
2019-01-30T09:49:45.699Z,18.60
2019-01-30T09:52:26.401Z,16.77
2019-01-30T09:54:48.923Z,18.53
2019-01-30T09:57:29.956Z,14.90
2019-01-30T10:00:02.813Z,16.87
2019-01-30T10:02:34.656Z,16.33
2019-01-30T10:05:06.049Z,13.87
2019-01-30T10:07:36.877Z,18.83
2019-01-30T10:10:11.337Z,12.87
2019-01-30T10:12:42.123Z,12.80
2019-01-30T10:15:16.053Z,18.50
2019-01-30T10:17:47.196Z,17.60
2019-01-30T10:20:20.374Z,14.80
2019-01-30T10:22:58.427Z,17.77
2019-01-30T10:25:29.444Z,12.43
2019-01-30T10:28:00.205Z,18.03
2019-01-30T10:30:33.498Z,19.23
2019-01-30T10:33:04.576Z,14.70
2019-01-30T10:35:38.139Z,15.00
2019-01-30T10:38:09.116Z,14.10
2019-01-30T10:40:39.858Z,12.80
2019-01-30T10:43:10.661Z,18.10
2019-01-30T10:45:41.376Z,15.57
2019-01-30T10:48:12.772Z,21.23
2019-01-30T10:50:45.194Z,15.43
2019-01-30T10:53:20.112Z,20.13
2019-01-30T10:55:50.795Z,16.93
2019-01-30T10:58:21.726Z,14.40
2019-01-30T11:16:02.392Z,17.30
2019-01-30T11:18:33.380Z,21.80
2019-01-30T11:21:06.077Z,14.10
2019-01-30T11:23:36.777Z,18.20
2019-01-30T11:26:07.524Z,14.73
2019-01-30T11:28:38.380Z,17.00
2019-01-30T11:31:11.308Z,16.53
2019-01-30T11:33:42.277Z,22.97
2019-01-30T11:36:13.156Z,17.53
2019-01-30T11:38:43.978Z,20.12
2019-01-30T11:41:14.977Z,19.55
2019-01-30T11:46:16.990Z,16.00
2019-01-30T11:48:56.506Z,18.73
2019-01-30T11:51:25.077Z,24.80
2019-01-30T11:53:55.872Z,20.48
2019-01-30T11:56:26.686Z,17.62
2019-01-30T11:58:57.295Z,18.73
2019-01-30T12:01:32.367Z,15.13
2019-01-30T12:04:03.075Z,16.40
2019-01-30T12:06:33.647Z,16.07
2019-01-30T12:09:06.943Z,15.03
2019-01-30T12:11:37.554Z,20.10
2019-01-30T12:14:08.314Z,16.53
2019-01-30T12:16:39.089Z,21.30
2019-01-30T12:19:09.850Z,13.60
2019-01-30T12:21:40.784Z,20.30
2019-01-30T12:24:11.690Z,17.03
2019-01-30T12:26:42.649Z,19.00
2019-01-30T12:29:15.386Z,13.70
2019-01-30T12:31:46.036Z,24.43
2019-01-30T12:34:28.126Z,16.83
2019-01-30T12:36:54.038Z,18.37
2019-01-30T12:39:29.980Z,18.13
2019-01-30T12:42:02.973Z,24.30
2019-01-30T12:44:37.900Z,21.03
2019-01-30T12:52:19.028Z,17.20
2019-01-30T12:57:25.754Z,18.70
2019-01-30T12:59:58.051Z,16.90
2019-01-30T13:02:30.474Z,16.33
2019-01-30T13:05:02.435Z,16.30
2019-01-30T13:07:33.439Z,17.87
2019-01-30T13:10:05.067Z,15.27
2019-01-30T13:12:42.812Z,18.80
2019-01-30T13:15:14.721Z,18.90
2019-01-30T13:17:49.204Z,19.90
2019-01-30T13:22:50.549Z,25.08
2019-01-30T13:25:26.506Z,21.83
2019-01-30T13:43:07.125Z,15.57
2019-01-30T13:50:46.886Z,19.83
2019-01-30T14:03:18.685Z,18.73
2019-01-30T14:06:16.443Z,15.27
2019-01-30T14:16:17.325Z,19.80
2019-01-30T14:56:43.648Z,15.13
2019-01-30T14:59:14.613Z,15.17
2019-01-30T15:07:07.958Z,18.12
2019-01-30T15:09:41.810Z,17.60
2019-01-30T15:12:12.559Z,17.37
2019-01-30T15:19:53.867Z,19.00
2019-01-30T15:22:21.664Z,16.20
2019-01-30T15:24:55.523Z,15.03
2019-01-30T16:54:32.545Z,23.30
2019-01-30T16:57:18.262Z,20.30
2019-01-30T17:00:23.943Z,19.10
2019-01-30T17:02:58.203Z,19.67
2019-01-30T17:06:07.520Z,20.27
2019-01-30T17:09:05.802Z,21.07
2019-01-30T17:11:45.472Z,19.85
2019-01-30T17:14:20.689Z,18.90
2019-01-30T17:17:07.163Z,20.17
2019-01-30T17:19:43.767Z,19.67
2019-01-30T17:27:33.822Z,16.67
2019-01-30T17:30:10.678Z,18.80
2019-01-30T17:35:33.668Z,19.07
2019-01-30T17:38:17.434Z,20.12
2019-01-30T17:40:55.480Z,23.27
2019-01-30T17:43:26.494Z,21.70
2019-01-30T17:46:00.688Z,24.57
2019-01-30T17:48:35.319Z,17.70
2019-01-30T17:56:12.143Z,21.37
2019-01-30T18:08:50.326Z,20.15
2019-01-30T18:11:21.664Z,21.80
2019-01-30T18:13:54.639Z,20.72
2019-01-30T19:02:11.411Z,25.62
2019-01-30T19:04:46.343Z,25.27
2019-01-30T19:07:20.703Z,21.93
2019-01-30T19:09:54.235Z,22.00
2019-01-30T19:15:01.636Z,25.13
2019-01-30T19:22:45.502Z,27.65
2019-01-30T19:25:17.139Z,20.23
2019-01-30T19:27:49.072Z,23.20
2019-01-30T19:30:28.514Z,20.72
2019-01-30T19:33:05.581Z,22.73
2019-01-30T19:35:39.795Z,21.80
2019-01-30T19:38:11.844Z,24.60
2019-01-30T19:40:45.675Z,21.83
2019-01-30T19:43:18.772Z,18.50
2019-01-30T19:45:50.825Z,22.53
2019-01-30T19:48:22.322Z,21.27
2019-01-30T19:50:53.819Z,20.77
2019-01-30T19:53:26.553Z,21.25
2019-01-30T19:55:57.689Z,23.57
2019-01-30T19:58:30.565Z,25.20
2019-01-30T20:01:04.866Z,22.20
2019-01-30T20:03:36.817Z,22.85
2019-01-30T20:06:11.712Z,23.57
2019-01-30T20:08:42.927Z,18.77
2019-01-30T20:11:14.330Z,23.87
2019-01-30T20:13:45.531Z,24.23
2019-01-30T20:16:16.976Z,22.32
2019-01-30T20:18:49.610Z,20.40
2019-01-30T20:21:25.069Z,21.97
2019-01-30T20:23:56.544Z,21.35
2019-01-30T20:26:27.969Z,22.58
2019-01-30T20:29:00.499Z,22.73
2019-01-30T20:31:34.122Z,20.45
2019-01-30T20:34:57.232Z,23.95
2019-01-30T20:41:06.245Z,22.43
2019-01-30T20:43:50.495Z,19.00
2019-01-30T20:46:38.314Z,20.10
2019-01-30T20:49:53.369Z,22.97
2019-01-30T20:52:17.353Z,20.10
2019-01-30T20:55:13.320Z,19.27
2019-01-30T20:57:51.294Z,24.15
2019-01-30T21:00:28.522Z,21.07
2019-01-30T21:03:32.059Z,21.55
2019-01-30T21:06:08.758Z,19.30
2019-01-30T21:08:48.036Z,23.92
2019-01-30T21:11:27.697Z,20.55
2019-01-30T21:14:20.436Z,20.23
2019-01-30T21:16:47.554Z,21.87
2019-01-30T21:19:24.340Z,23.98
2019-01-30T21:22:07.565Z,25.88
2019-01-30T21:24:42.082Z,21.45
2019-01-30T21:27:13.521Z,22.37
2019-01-30T21:29:47.495Z,23.20
2019-01-30T21:32:24.514Z,22.45
2019-01-30T21:34:58.179Z,21.55
2019-01-30T21:37:33.751Z,22.82
2019-01-30T21:40:10.066Z,26.05
2019-01-30T21:42:45.912Z,20.60
2019-01-30T21:45:23.214Z,22.30
2019-01-30T21:48:07.250Z,23.98
2019-01-30T21:50:43.038Z,24.55
2019-01-30T21:53:21.872Z,23.57
2019-01-30T21:55:53.107Z,26.97
2019-01-30T21:58:27.787Z,24.82
2019-01-30T22:01:05.598Z,24.15
2019-01-30T22:03:39.160Z,24.60
2019-01-30T22:06:13.821Z,22.60
2019-01-30T22:08:47.004Z,24.85
2019-01-30T22:11:18.369Z,23.07
2019-01-30T22:13:53.346Z,24.92
2019-01-30T22:16:24.671Z,23.87
2019-01-30T22:18:55.967Z,24.75
2019-01-30T22:21:26.817Z,26.05
2019-01-30T22:24:05.666Z,26.40
2019-01-30T22:26:33.059Z,25.05
2019-01-30T22:29:04.315Z,23.27
2019-01-30T22:31:35.231Z,25.30
2019-01-30T22:34:08.477Z,25.07
2019-01-30T22:36:39.544Z,24.67
2019-01-30T22:39:12.167Z,27.13
2019-01-30T22:41:45.585Z,26.60
2019-01-30T22:44:26.458Z,25.30
2019-01-30T22:46:57.828Z,26.13
2019-01-30T22:49:43.865Z,26.83
2019-01-30T22:52:21.708Z,22.43
2019-01-30T22:55:04.073Z,23.37
2019-01-30T22:57:44.451Z,20.70
2019-01-30T23:00:52.280Z,25.50
2019-01-30T23:04:10.750Z,26.33
2019-01-30T23:07:00.972Z,22.90
2019-01-30T23:10:12.722Z,26.17
2019-01-30T23:13:12.938Z,26.63
2019-01-30T23:16:32.779Z,27.23
2019-01-30T23:19:29.239Z,27.40
2019-01-30T23:22:48.986Z,25.12
2019-01-30T23:26:10.427Z,24.20
2019-01-30T23:29:25.861Z,25.43
2019-01-30T23:32:29.589Z,24.45
2019-01-30T23:35:37.187Z,24.98
2019-01-30T23:38:44.293Z,23.80
2019-01-30T23:42:00.264Z,25.65
2019-01-30T23:44:53.139Z,22.80
2019-01-30T23:48:28.856Z,21.20
2019-01-30T23:51:40.790Z,22.07
2019-01-30T23:54:43.851Z,23.15
2019-01-30T23:58:07.919Z,21.17
